Kugler, Minnesota
Current Conditions -  °F | °C
As of 9:55 AM on Friday 24 Oct 2014 (Local Time) from KCQM Reporting Station
Clear Clear  
Wind Chill: 12°   Ceiling: Unl
Heat Index: 12°   Visibility: 10mi
Dew Point:   Wind: 10mph
Humidity: 72%   Direction: 200°SSW
Pressure: 29.8"   Gusts: 17mph
Location:  47.7992°N, 92.3042°W
Report Text: KCQM 241455Z AUTO 20009G15KT 171V231 10SM CLR 12/07 A2980 RMK AO2
Loading
Personal Weather Stations






























Interactive Weather Map
Tropical Storm Tracking
New forecast layout! Learn more

10-Day Weather Forecast

Advertisements
Track Severe Weather on mobile